Terminal Aerodrome Forecast
Issued by NWS Charleston, WV

Current Version | Previous Version | Graphics & Text | Print | Product List | Glossary On
Versions: 1 2 3 4 5 6 7 8 9 10 11 12 13 14 15 16 17 18 19 20 21 22
836
FTUS41 KRLX 241139
TAFCRW
TAF
KCRW 241139Z 2412/2512 00000KT 4SM BR FEW001
      TEMPO 2412/2413 1/2SM FG BKN001
     FM241300 26007KT P6SM FEW045
     FM250800 00000KT 5SM BR SKC=

USA.gov is the U.S. government's official web portal to all federal, state and local government web resources and services.